McGregor, Iowa
Current Conditions -  °F | °C
As of 2:15 AM on Thursday 29 Jan 2015 (Local Time) from KPDC Reporting Station
Haze Haze  
Wind Chill: 24°   Ceiling: 1500
Heat Index: 32°   Visibility: 3mi
Dew Point: 30°   Wind: 9mph
Humidity: 92%   Direction: 330°NNW
Pressure: 29.79"   Gusts: NA
Location:  43.02°N, 91.18°W
Report Text: KPDC 290815Z AUTO 33008KT 3SM BR SCT008 BKN015 OVC020 00/M01 A2979 RMK AO2 T00001011
Loading
Personal Weather Stations






























Interactive Weather Map New forecast layout! Learn more

10-Day Weather Forecast

Advertisements
Track Severe Weather on mobile